Terminal Aerodrome Forecast
Issued by NWS

Home | Current Version | Previous Version | Text Only | Print | Product List | Glossary On
Versions: 1 2 3 4 5 6 7 8 9 10 11 12 13 14 15 16 17 18 19 20 21 22 23 24 25
000
FTUS41 KBUF 291700
TAFJHW
TAF
KJHW 291740Z 2918/3018 20010KT P6SM SCT200
     FM300000 18012KT P6SM BKN150
     FM300200 19014G22KT 2SM -SN OVC030
     FM300400 21016G24KT 5SM -SHSN OVC025
     FM301000 26018G26KT 2SM -SHSN OVC008
     FM301400 26014KT P6SM VCSH OVC015
      AMD LTD TO CLD VIS AND WIND=

USA.gov is the U.S. government's official web portal to all federal, state and local government web resources and services.